Terminal Aerodrome Forecast
Issued by NWS Quad Cities IA IL

Home | Current Version | Previous Version | Text Only | Print | Product List | Glossary On
Versions: 1 2 3 4 5 6 7 8 9 10 11 12 13 14 15 16 17 18 19 20 21
000
FTUS43 KDVN 160911 AAA
TAFDBQ
TAF AMD
KDBQ 160911Z 1609/1706 11005KT P6SM VCSH SCT035 BKN050
     FM161600 12006KT P6SM VCSH SCT025 OVC090 PROB30 1619/1623 2SM
      SHRA BKN035 OVC050
     FM170200 13006KT 2SM -TSRA BKN035CB OVC050=

USA.gov is the U.S. government's official web portal to all federal, state and local government web resources and services.